createdAt,value
2024-01-18T00:02:43.129Z,102263.03
2024-01-18T00:05:50.089Z,102264.84
2024-01-18T00:08:57.724Z,102268.69
2024-01-18T00:12:04.371Z,102272.31
2024-01-18T00:15:14.731Z,102284.75
2024-01-18T00:18:21.891Z,102284.88
2024-01-18T00:21:28.837Z,102282.03
2024-01-18T00:24:36.019Z,102284.22
2024-01-18T00:27:43.425Z,102291.38
2024-01-18T00:30:52.439Z,102297.09
2024-01-18T00:34:00.725Z,102304.00
2024-01-18T00:37:08.052Z,102294.16
2024-01-18T00:40:16.945Z,102296.88
2024-01-18T00:43:25.475Z,102312.59
2024-01-18T00:46:34.380Z,102309.09
2024-01-18T00:49:42.189Z,102296.25
2024-01-18T00:52:48.978Z,102314.03
2024-01-18T00:55:59.000Z,102313.28
2024-01-18T00:59:05.912Z,102317.75
2024-01-18T01:02:15.227Z,102312.13
2024-01-18T01:05:22.086Z,102321.00
2024-01-18T01:08:29.051Z,102333.03
2024-01-18T01:11:35.727Z,102292.72
2024-01-18T01:14:43.113Z,102332.59
2024-01-18T01:17:51.415Z,102331.38
2024-01-18T01:20:58.175Z,102335.66
2024-01-18T01:24:05.222Z,102332.09
2024-01-18T01:27:12.508Z,102341.59
2024-01-18T01:30:19.494Z,102341.84
2024-01-18T01:33:28.093Z,102329.59
2024-01-18T01:36:34.881Z,102334.34
2024-01-18T01:39:41.769Z,102335.66
2024-01-18T01:42:48.863Z,102331.72
2024-01-18T01:45:56.387Z,102342.34
2024-01-18T01:49:07.137Z,102334.53
2024-01-18T01:52:15.943Z,102345.94
2024-01-18T01:55:24.717Z,102345.19
2024-01-18T01:58:32.329Z,102352.66
2024-01-18T02:01:39.863Z,102358.03
2024-01-18T02:04:49.772Z,102352.28
2024-01-18T02:07:58.622Z,102340.53
2024-01-18T02:11:08.585Z,102350.84
2024-01-18T02:14:16.754Z,102356.59
2024-01-18T02:17:24.379Z,102361.41
2024-01-18T02:20:36.306Z,102357.53
2024-01-18T02:23:49.869Z,102362.25
2024-01-18T02:26:59.074Z,102354.22
2024-01-18T02:30:05.873Z,102354.00
2024-01-18T02:33:13.851Z,102313.06
2024-01-18T02:36:23.016Z,102359.34
2024-01-18T02:39:30.600Z,102338.84
2024-01-18T02:42:39.452Z,102356.25
2024-01-18T02:45:46.712Z,102342.78
2024-01-18T02:48:53.288Z,102346.91
2024-01-18T02:52:00.192Z,102337.84
2024-01-18T02:55:08.701Z,102361.22
2024-01-18T02:58:17.100Z,102359.63
2024-01-18T03:01:25.150Z,102366.16
2024-01-18T03:04:33.562Z,102361.13
2024-01-18T03:07:40.993Z,102368.31
2024-01-18T03:10:54.540Z,102366.94
2024-01-18T03:14:15.876Z,102362.59
2024-01-18T03:17:22.811Z,102359.66
2024-01-18T03:20:30.823Z,102361.28
2024-01-18T03:23:40.144Z,102353.47
2024-01-18T03:26:50.615Z,102360.91
2024-01-18T03:30:02.182Z,102364.94
2024-01-18T03:33:09.865Z,102367.94
2024-01-18T03:36:17.839Z,102365.25
2024-01-18T03:39:26.541Z,102365.06
2024-01-18T03:42:33.799Z,102374.31
2024-01-18T03:45:43.186Z,102372.94
2024-01-18T03:48:50.212Z,102369.44
2024-01-18T03:51:57.018Z,102366.03
2024-01-18T03:55:03.907Z,102374.81
2024-01-18T03:58:10.892Z,102375.63
2024-01-18T04:01:19.563Z,102378.09
2024-01-18T04:04:26.772Z,102379.13
2024-01-18T04:07:43.284Z,102385.28
2024-01-18T04:10:50.557Z,102381.13
2024-01-18T04:13:57.676Z,102385.22
2024-01-18T04:17:06.347Z,102394.94
2024-01-18T04:20:22.331Z,102396.06
2024-01-18T04:23:29.447Z,102362.69
2024-01-18T04:26:39.286Z,102394.53
2024-01-18T04:29:46.446Z,102401.69
2024-01-18T04:32:55.083Z,102402.19
2024-01-18T04:36:02.658Z,102397.34
2024-01-18T04:39:11.529Z,102378.22
2024-01-18T04:42:18.839Z,102402.66
2024-01-18T04:45:25.666Z,102400.66
2024-01-18T04:48:40.400Z,102407.19
2024-01-18T04:51:47.427Z,102404.22
2024-01-18T04:54:55.296Z,102415.06
2024-01-18T04:58:02.785Z,102407.06
2024-01-18T05:01:10.182Z,102416.41
2024-01-18T05:04:22.182Z,102422.44
2024-01-18T05:07:29.554Z,102428.84
2024-01-18T05:10:36.755Z,102438.44
2024-01-18T05:13:43.898Z,102428.84
2024-01-18T05:16:53.367Z,102433.38
2024-01-18T05:20:02.750Z,102447.31
2024-01-18T05:23:09.699Z,102441.19
2024-01-18T05:26:16.956Z,102448.69
2024-01-18T05:29:23.915Z,102454.50
2024-01-18T05:32:31.348Z,102453.94
2024-01-18T05:35:40.694Z,102460.28
2024-01-18T05:38:47.679Z,102462.19
2024-01-18T05:41:54.733Z,102469.44
2024-01-18T05:45:02.490Z,102472.31
2024-01-18T05:48:10.868Z,102469.72
2024-01-18T05:51:20.050Z,102478.44
2024-01-18T05:54:27.131Z,102427.44
2024-01-18T05:57:39.591Z,102473.53
2024-01-18T06:00:46.871Z,102481.03
2024-01-18T06:03:53.468Z,102466.59
2024-01-18T06:07:03.537Z,102501.81
2024-01-18T06:10:11.002Z,102500.25
2024-01-18T06:13:17.736Z,102493.28
2024-01-18T06:16:24.660Z,102507.88
2024-01-18T06:19:31.918Z,102517.81
2024-01-18T06:22:40.801Z,102510.41
2024-01-18T06:25:48.128Z,102504.84
2024-01-18T06:28:54.693Z,102504.50
2024-01-18T06:32:03.380Z,102519.84
2024-01-18T06:35:11.950Z,102524.41
2024-01-18T06:38:22.269Z,102538.25
2024-01-18T06:41:29.929Z,102530.41
2024-01-18T06:44:37.285Z,102539.72
2024-01-18T06:47:44.618Z,102545.00
2024-01-18T06:50:51.830Z,102545.00
2024-01-18T06:54:00.698Z,102559.22
2024-01-18T06:57:09.022Z,102560.25
2024-01-18T07:00:17.643Z,102521.13
2024-01-18T07:03:24.289Z,102557.06
2024-01-18T07:06:31.541Z,102555.56
2024-01-18T07:09:40.724Z,102569.41
2024-01-18T07:12:48.312Z,102577.50
2024-01-18T07:15:56.549Z,102588.50
2024-01-18T07:19:05.064Z,102563.50
2024-01-18T07:22:12.788Z,102604.94
2024-01-18T07:25:21.423Z,102609.03
2024-01-18T07:28:28.118Z,102616.78
2024-01-18T07:31:35.584Z,102626.97
2024-01-18T07:34:42.630Z,102625.19
2024-01-18T07:37:49.623Z,102648.22
2024-01-18T07:40:57.845Z,102658.84
2024-01-18T07:44:05.553Z,102633.13
2024-01-18T07:47:14.219Z,102628.75
2024-01-18T07:50:33.550Z,102660.41
2024-01-18T07:53:43.753Z,102594.00
2024-01-18T07:56:52.889Z,102657.53
2024-01-18T07:59:59.870Z,102633.03
2024-01-18T08:03:07.764Z,102657.22
2024-01-18T08:06:15.973Z,102692.72
2024-01-18T08:09:24.365Z,102646.25
2024-01-18T08:12:33.458Z,102686.75
2024-01-18T08:15:43.299Z,102685.69
2024-01-18T08:18:51.424Z,102696.69
2024-01-18T08:22:06.155Z,102684.06
2024-01-18T08:25:24.228Z,102702.25
2024-01-18T08:28:34.109Z,102708.06
2024-01-18T08:31:42.352Z,102711.38
2024-01-18T08:34:49.624Z,102715.25
2024-01-18T08:37:56.714Z,102723.13
2024-01-18T08:41:04.066Z,102735.00
2024-01-18T08:44:12.544Z,102730.34
2024-01-18T08:47:21.178Z,102735.25
2024-01-18T08:50:28.318Z,102736.50
2024-01-18T08:53:41.161Z,102724.34
2024-01-18T08:56:49.099Z,102740.06
2024-01-18T08:59:57.516Z,102744.44
2024-01-18T09:03:04.423Z,102745.41
2024-01-18T09:06:12.306Z,102738.16
2024-01-18T09:09:19.301Z,102747.09
2024-01-18T09:12:26.534Z,102748.56
2024-01-18T09:15:37.111Z,102753.28
2024-01-18T09:18:56.278Z,102754.53
2024-01-18T09:22:11.743Z,102716.03
2024-01-18T09:25:19.194Z,102752.19
2024-01-18T09:28:26.087Z,102760.22
2024-01-18T09:31:41.433Z,102759.28
2024-01-18T09:34:50.376Z,102767.31
2024-01-18T09:37:58.067Z,102764.41
2024-01-18T09:41:09.934Z,102773.34
2024-01-18T09:44:17.938Z,102774.69
2024-01-18T09:47:28.064Z,102773.13
2024-01-18T09:50:37.712Z,102780.66
2024-01-18T09:53:50.613Z,102784.47
2024-01-18T09:57:01.220Z,102787.44
2024-01-18T10:00:11.420Z,102787.63
2024-01-18T10:03:21.212Z,102786.19
2024-01-18T10:06:28.944Z,102782.84
2024-01-18T10:09:36.377Z,102780.81
2024-01-18T10:12:47.060Z,102779.38
2024-01-18T10:15:53.861Z,102783.81
2024-01-18T10:19:04.069Z,102751.66
2024-01-18T10:22:13.925Z,102798.31
2024-01-18T10:25:21.335Z,102799.66
2024-01-18T10:28:28.297Z,102787.16
2024-01-18T10:31:35.470Z,102809.69
2024-01-18T10:34:44.557Z,102814.31
2024-01-18T10:37:51.798Z,102817.97
2024-01-18T10:41:01.640Z,102824.16
2024-01-18T10:44:10.389Z,102821.53
2024-01-18T10:47:19.409Z,102811.69
2024-01-18T10:50:28.292Z,102817.00
2024-01-18T10:53:35.826Z,102830.78
2024-01-18T10:56:43.539Z,102821.97
2024-01-18T10:59:57.335Z,102830.00
2024-01-18T11:03:05.230Z,102832.72
2024-01-18T11:06:15.789Z,102830.19
2024-01-18T11:09:24.874Z,102831.84
2024-01-18T11:12:32.087Z,102839.38
2024-01-18T11:15:39.258Z,102849.44
2024-01-18T11:18:52.848Z,102846.03
2024-01-18T11:22:01.466Z,102857.06
2024-01-18T11:25:11.082Z,102863.47
2024-01-18T11:28:27.732Z,102863.50
2024-01-18T11:31:51.547Z,102876.41
2024-01-18T11:35:11.582Z,102850.03
2024-01-18T11:38:23.367Z,102864.63
2024-01-18T11:41:31.793Z,102879.44
2024-01-18T11:44:39.397Z,102881.13
2024-01-18T11:47:48.587Z,102878.88
2024-01-18T11:50:56.043Z,102870.72
2024-01-18T11:54:06.357Z,102863.25
2024-01-18T11:57:17.188Z,102867.16
2024-01-18T12:00:25.052Z,102892.59
2024-01-18T12:03:32.120Z,102894.47
2024-01-18T12:06:39.532Z,102823.06
2024-01-18T12:09:51.149Z,102904.66
2024-01-18T12:12:58.548Z,102898.41
2024-01-18T12:16:06.424Z,102862.28
2024-01-18T12:19:14.942Z,102904.97
2024-01-18T12:22:24.737Z,102912.19
2024-01-18T12:25:35.853Z,102918.25
2024-01-18T12:28:42.825Z,102915.13
2024-01-18T12:31:50.344Z,102921.25
2024-01-18T12:34:59.614Z,102895.03
2024-01-18T12:38:07.490Z,102928.31
2024-01-18T12:41:19.648Z,102929.53
2024-01-18T12:44:27.372Z,102935.25
2024-01-18T12:47:35.353Z,102938.50
2024-01-18T12:50:42.287Z,102934.38
2024-01-18T12:53:49.209Z,102933.53
2024-01-18T12:57:02.312Z,102929.47
2024-01-18T13:00:13.664Z,102920.97
2024-01-18T13:03:20.678Z,102927.41
2024-01-18T13:06:28.099Z,102934.41
2024-01-18T13:09:36.193Z,102883.25
2024-01-18T13:12:45.829Z,102924.16
2024-01-18T13:15:52.636Z,102939.84
2024-01-18T13:19:04.561Z,102932.59
2024-01-18T13:22:11.686Z,102934.38
2024-01-18T13:25:20.337Z,102938.75
2024-01-18T13:28:32.023Z,102931.66
2024-01-18T13:31:40.319Z,102937.41
2024-01-18T13:34:47.784Z,102937.16
2024-01-18T13:37:55.304Z,102944.94
2024-01-18T13:41:02.994Z,102943.31
2024-01-18T13:44:11.680Z,102952.69
2024-01-18T13:47:18.836Z,102953.84
2024-01-18T13:50:25.275Z,102956.13
2024-01-18T13:53:32.641Z,102965.88
2024-01-18T13:56:39.826Z,102951.00
2024-01-18T13:59:48.515Z,102976.69
2024-01-18T14:02:55.613Z,102963.44
2024-01-18T14:06:02.695Z,102973.88
2024-01-18T14:09:10.273Z,102967.47
2024-01-18T14:12:17.281Z,102896.03
2024-01-18T14:15:30.164Z,102936.19
2024-01-18T14:18:38.271Z,102964.25
2024-01-18T14:21:46.093Z,102974.78
2024-01-18T14:24:53.376Z,102980.03
2024-01-18T14:28:02.643Z,102981.25
2024-01-18T14:31:12.646Z,102971.66
2024-01-18T14:34:21.121Z,102975.91
2024-01-18T14:37:28.551Z,102986.56
2024-01-18T14:40:36.201Z,102983.19
2024-01-18T14:43:43.183Z,102967.72
2024-01-18T14:46:54.096Z,102981.81
2024-01-18T14:50:01.032Z,102974.97
2024-01-18T14:53:08.668Z,102961.75
2024-01-18T14:56:15.843Z,102972.19
2024-01-18T14:59:23.328Z,102972.09
2024-01-18T15:02:33.304Z,102980.75
2024-01-18T15:05:41.048Z,102986.00
2024-01-18T15:08:49.082Z,102980.47
2024-01-18T15:11:56.222Z,102984.97
2024-01-18T15:15:02.872Z,102980.91
2024-01-18T15:18:11.983Z,102989.88
2024-01-18T15:21:19.029Z,102985.69
2024-01-18T15:24:25.889Z,102986.41
2024-01-18T15:27:33.566Z,102990.69
2024-01-18T15:30:40.274Z,102984.88
2024-01-18T15:33:50.050Z,102986.03
2024-01-18T15:36:58.595Z,102983.19
2024-01-18T15:40:08.067Z,102978.91
2024-01-18T15:43:15.269Z,102987.38
2024-01-18T15:46:24.513Z,102994.28
2024-01-18T15:49:34.182Z,102993.56
2024-01-18T15:52:44.249Z,102973.19
2024-01-18T15:55:52.230Z,102971.72
2024-01-18T15:59:00.336Z,103000.81
2024-01-18T16:02:08.444Z,103004.38
2024-01-18T16:05:18.183Z,102992.06
2024-01-18T16:08:26.107Z,103001.03
2024-01-18T16:11:32.967Z,102995.19
2024-01-18T16:14:44.964Z,102982.47
2024-01-18T16:17:51.980Z,103000.03
2024-01-18T16:21:00.664Z,102998.69
2024-01-18T16:24:10.240Z,102994.44
2024-01-18T16:27:19.366Z,102992.38
2024-01-18T16:30:30.296Z,102990.31
2024-01-18T16:33:38.787Z,102995.59
2024-01-18T16:36:47.040Z,102958.34
2024-01-18T16:39:55.228Z,102988.66
2024-01-18T16:43:02.840Z,102993.34
2024-01-18T16:46:10.591Z,102993.19
2024-01-18T16:49:17.722Z,103004.34
2024-01-18T16:52:27.130Z,103006.81
2024-01-18T16:55:35.020Z,103015.63
2024-01-18T16:58:41.628Z,103014.75
2024-01-18T17:01:48.841Z,103015.72
2024-01-18T17:04:56.189Z,103020.41
2024-01-18T17:08:06.855Z,103020.56
2024-01-18T17:11:20.228Z,103013.00
2024-01-18T17:14:27.879Z,103019.88
2024-01-18T17:17:34.846Z,103019.59
2024-01-18T17:20:42.941Z,103024.81
2024-01-18T17:23:51.226Z,103026.13
2024-01-18T17:26:58.952Z,103022.75
2024-01-18T17:30:06.289Z,103019.84
2024-01-18T17:33:14.065Z,103016.41
2024-01-18T17:36:21.798Z,103028.91
2024-01-18T17:39:30.809Z,103028.00
2024-01-18T17:42:38.504Z,103031.16
2024-01-18T17:45:46.616Z,103027.34
2024-01-18T17:48:58.860Z,103021.53
2024-01-18T17:52:07.044Z,103018.44
2024-01-18T17:55:15.502Z,103024.34
2024-01-18T17:58:22.488Z,103028.34
2024-01-18T18:01:29.884Z,103019.09
2024-01-18T18:04:37.516Z,103022.91
2024-01-18T18:07:44.967Z,103014.69
2024-01-18T18:10:53.535Z,103007.16
2024-01-18T18:14:00.265Z,103012.88
2024-01-18T18:17:07.569Z,103022.13
2024-01-18T18:20:15.300Z,103024.63
2024-01-18T18:23:22.794Z,103020.16
2024-01-18T18:26:31.748Z,103013.13
2024-01-18T18:29:38.986Z,103021.34
2024-01-18T18:32:45.992Z,103010.72
2024-01-18T18:35:53.382Z,103014.03
2024-01-18T18:39:00.874Z,102977.41
2024-01-18T18:42:10.600Z,103004.50
2024-01-18T18:45:17.925Z,103010.06
2024-01-18T18:48:24.890Z,103003.09
2024-01-18T18:51:31.905Z,102991.50
2024-01-18T18:54:39.038Z,102985.16
2024-01-18T18:57:47.892Z,102980.72
2024-01-18T19:00:54.607Z,102997.50
2024-01-18T19:04:09.120Z,102963.59
2024-01-18T19:07:19.905Z,102987.88
2024-01-18T19:10:27.565Z,102988.66
2024-01-18T19:13:36.202Z,102985.47
2024-01-18T19:16:43.329Z,102978.59
2024-01-18T19:19:51.037Z,102964.00
2024-01-18T19:22:58.077Z,102985.47
2024-01-18T19:26:09.501Z,102942.38
2024-01-18T19:29:22.943Z,102970.47
2024-01-18T19:32:30.515Z,102998.84
2024-01-18T19:35:37.520Z,102993.22
2024-01-18T19:38:45.165Z,102968.81
2024-01-18T19:41:52.756Z,103006.03
2024-01-18T19:45:06.379Z,103011.22
2024-01-18T19:48:16.515Z,103011.22
2024-01-18T19:51:23.805Z,103011.66
2024-01-18T19:54:36.376Z,102971.13
2024-01-18T19:57:45.514Z,102998.59
2024-01-18T20:00:56.804Z,103008.03
2024-01-18T20:04:06.819Z,103003.88
2024-01-18T20:07:14.294Z,103001.72
2024-01-18T20:10:23.170Z,103006.13
2024-01-18T20:13:30.817Z,103003.63
2024-01-18T20:16:40.468Z,103010.19
2024-01-18T20:19:47.596Z,103005.69
2024-01-18T20:22:56.912Z,103007.88
2024-01-18T20:26:05.499Z,103009.03
2024-01-18T20:29:14.681Z,103003.41
2024-01-18T20:32:23.928Z,103004.31
2024-01-18T20:35:31.255Z,102994.03
2024-01-18T20:38:38.420Z,102999.75
2024-01-18T20:41:45.557Z,102997.44
2024-01-18T20:44:52.202Z,102979.09
2024-01-18T20:48:00.969Z,103001.06
2024-01-18T20:51:08.290Z,102994.94
2024-01-18T20:54:17.099Z,103001.84
2024-01-18T20:57:24.464Z,102997.03
2024-01-18T21:00:35.610Z,103011.00
2024-01-18T21:03:44.765Z,103014.72
2024-01-18T21:06:51.778Z,103016.66
2024-01-18T21:10:11.282Z,102708.84
2024-01-18T21:13:17.910Z,103019.00
2024-01-18T21:16:25.276Z,103028.06
2024-01-18T21:19:33.930Z,103024.13
2024-01-18T21:22:41.240Z,103030.72
2024-01-18T21:25:47.942Z,103037.38
2024-01-18T21:28:54.735Z,103041.22
2024-01-18T21:32:01.674Z,103037.81
2024-01-18T21:35:11.150Z,103046.03
2024-01-18T21:38:19.927Z,103049.25
2024-01-18T21:41:27.030Z,103050.06
2024-01-18T21:44:35.963Z,103054.16
2024-01-18T21:47:44.171Z,102980.28
2024-01-18T21:50:52.531Z,103064.88
2024-01-18T21:53:59.678Z,103068.88
2024-01-18T21:57:07.270Z,103068.97
2024-01-18T22:00:15.726Z,103067.53
2024-01-18T22:03:23.359Z,103066.50
2024-01-18T22:06:33.193Z,103049.72
2024-01-18T22:09:42.555Z,103064.16
2024-01-18T22:12:50.373Z,103059.31
2024-01-18T22:15:58.321Z,103062.00
2024-01-18T22:19:12.250Z,103068.84
2024-01-18T22:22:27.135Z,103044.56
2024-01-18T22:25:36.312Z,103057.56
2024-01-18T22:28:45.332Z,103062.16
2024-01-18T22:31:51.827Z,103058.34
2024-01-18T22:34:58.791Z,103054.41
2024-01-18T22:38:07.102Z,103029.25
2024-01-18T22:41:13.583Z,103058.56
2024-01-18T22:44:20.965Z,103052.63
2024-01-18T22:47:29.388Z,103064.75
2024-01-18T22:50:39.363Z,103064.91
2024-01-18T22:53:47.564Z,103061.03
2024-01-18T22:56:54.977Z,103059.47
2024-01-18T23:00:02.297Z,103063.78
2024-01-18T23:03:09.616Z,103078.00
2024-01-18T23:06:16.767Z,103099.03
2024-01-18T23:09:25.577Z,103049.59
2024-01-18T23:12:33.126Z,103101.97
2024-01-18T23:15:40.151Z,103105.03
2024-01-18T23:18:47.820Z,103097.19
2024-01-18T23:21:56.615Z,103101.13
2024-01-18T23:25:04.872Z,103051.94
2024-01-18T23:28:12.620Z,103089.59
2024-01-18T23:31:19.755Z,103090.34
2024-01-18T23:34:27.479Z,103101.09
2024-01-18T23:37:34.448Z,103101.59
2024-01-18T23:40:44.642Z,103098.72
2024-01-18T23:43:51.566Z,103091.84
2024-01-18T23:46:58.335Z,103096.16
2024-01-18T23:50:05.492Z,103088.34
2024-01-18T23:53:12.640Z,103082.22
2024-01-18T23:56:25.437Z,103061.03
2024-01-18T23:59:33.259Z,103085.81
